Time;durP1;ratioP1;P1;durP2;ratioP2;P2;SDS_P1;SDS_P2;PMS_P1;PMS_P2;Temp;Humidity;BMP_temperature;BMP_pressure;BME280_temperature;BME280_humidity;BME280_pressure;Samples;Min_cycle;Max_cycle;Signal;HPM_P1;HPM_P2
2022/05/27 00:00:12;;;;;;;2.55;1.40;;;16.00;99.90;;;;;;5093473;28;20043;-68
2022/05/27 00:02:39;;;;;;;2.28;1.25;;;16.00;99.90;;;;;;5075770;28;20044;-68
2022/05/27 00:05:06;;;;;;;2.70;1.40;;;15.90;99.90;;;;;;5093581;28;20040;-68
2022/05/27 00:07:33;;;;;;;2.13;1.02;;;15.90;99.90;;;;;;5092288;28;20047;-68
2022/05/27 00:10:00;;;;;;;2.40;1.20;;;15.90;99.90;;;;;;5092697;28;20135;-68
2022/05/27 00:12:27;;;;;;;4.25;1.38;;;15.90;99.90;;;;;;5075541;28;20479;-67
2022/05/27 00:14:54;;;;;;;2.95;1.30;;;15.90;99.90;;;;;;5092413;28;20047;-67
2022/05/27 00:17:22;;;;;;;6.70;1.65;;;15.90;99.90;;;;;;5092535;28;20478;-68
2022/05/27 00:19:49;;;;;;;3.95;1.20;;;16.00;99.90;;;;;;5093795;28;20044;-68
2022/05/27 00:22:16;;;;;;;4.05;1.23;;;16.00;99.90;;;;;;5093884;28;20379;-68
2022/05/27 00:24:42;;;;;;;2.70;1.10;;;15.90;99.90;;;;;;5076437;28;20359;-68
2022/05/27 00:27:09;;;;;;;5.30;1.58;;;15.90;99.90;;;;;;5075380;28;20036;-68
2022/05/27 00:29:36;;;;;;;2.17;0.85;;;15.90;99.90;;;;;;5092629;28;20051;-68
2022/05/27 00:32:23;;;;;;;2.55;0.90;;;15.90;99.90;;;;;;5079008;28;20047;-68
2022/05/27 00:34:50;;;;;;;2.15;1.08;;;15.90;99.90;;;;;;5077778;28;20044;-68
2022/05/27 00:37:18;;;;;;;3.38;1.33;;;15.90;99.90;;;;;;5097897;28;20098;-68
2022/05/27 00:39:45;;;;;;;2.30;1.20;;;15.90;99.90;;;;;;5079690;28;20360;-68
2022/05/27 00:42:12;;;;;;;2.13;0.95;;;15.90;99.90;;;;;;5080039;28;20052;-68
2022/05/27 00:44:38;;;;;;;1.42;0.90;;;15.90;99.90;;;;;;5096342;28;20048;-67
2022/05/27 00:47:09;;;;;;;4.32;1.35;;;15.90;99.90;;;;;;5096834;28;20044;-67
2022/05/27 00:49:59;;;;;;;3.70;1.30;;;15.90;99.90;;;;;;5096857;28;20047;-68
2022/05/27 00:52:28;;;;;;;2.13;0.98;;;15.90;99.90;;;;;;5096049;28;20040;-68
2022/05/27 00:54:55;;;;;;;2.08;1.00;;;15.90;99.90;;;;;;5079326;28;20040;-67
2022/05/27 00:57:27;;;;;;;2.22;1.15;;;15.90;99.90;;;;;;5079356;28;20046;-68
2022/05/27 01:00:05;;;;;;;2.45;1.02;;;15.90;99.90;;;;;;5079995;28;20043;-68
2022/05/27 01:02:32;;;;;;;1.67;0.95;;;15.90;99.90;;;;;;5097419;28;20040;-67
2022/05/27 01:04:58;;;;;;;2.58;1.30;;;15.80;99.90;;;;;;5079990;28;20458;-67
2022/05/27 01:07:26;;;;;;;3.83;1.17;;;15.80;99.90;;;;;;5096154;28;20040;-68
2022/05/27 01:09:52;;;;;;;2.30;1.20;;;15.70;99.90;;;;;;5097045;28;20040;-68
2022/05/27 01:12:49;;;;;;;1.63;1.00;;;15.70;99.90;;;;;;5079102;28;20050;-67
2022/05/27 01:15:25;;;;;;;3.15;1.58;;;15.60;99.90;;;;;;5088620;28;20048;-67
2022/05/27 01:18:11;;;;;;;3.25;1.40;;;15.50;99.90;;;;;;5078911;28;20052;-67
2022/05/27 01:20:58;;;;;;;5.60;2.55;;;15.40;99.90;;;;;;5096871;28;20054;-67
2022/05/27 01:23:46;;;;;;;3.25;1.70;;;15.30;99.90;;;;;;5095988;28;20044;-68
2022/05/27 01:26:38;;;;;;;2.90;1.63;;;15.30;99.90;;;;;;5096376;28;20036;-68
2022/05/27 01:29:46;;;;;;;2.92;1.27;;;15.20;99.90;;;;;;5095198;28;20051;-68
2022/05/27 01:32:43;;;;;;;2.97;1.90;;;15.10;99.90;;;;;;5095115;28;20044;-68
2022/05/27 01:35:19;;;;;;;2.28;1.55;;;15.10;99.90;;;;;;5081156;28;20054;-67
2022/05/27 01:38:02;;;;;;;3.63;1.40;;;15.00;99.90;;;;;;5095060;28;20043;-67
2022/05/27 01:40:34;;;;;;;2.25;1.35;;;15.00;99.90;;;;;;5081037;28;20044;-67
2022/05/27 01:43:08;;;;;;;3.33;1.83;;;14.90;99.90;;;;;;5094137;28;20055;-67
2022/05/27 01:45:55;;;;;;;7.20;2.17;;;14.90;99.90;;;;;;5077642;28;20472;-67
2022/05/27 01:48:34;;;;;;;4.05;1.83;;;14.90;99.90;;;;;;5094532;28;20513;-67
2022/05/27 01:51:06;;;;;;;4.22;2.38;;;14.80;99.90;;;;;;5078249;28;20052;-67
2022/05/27 01:53:44;;;;;;;3.53;1.60;;;14.80;99.90;;;;;;5077374;28;20042;-67
2022/05/27 01:56:20;;;;;;;3.65;2.33;;;14.80;99.90;;;;;;5094028;28;20048;-67
2022/05/27 01:59:20;;;;;;;2.83;1.70;;;14.70;99.90;;;;;;5061270;28;20464;-67
2022/05/27 02:01:54;;;;;;;2.72;1.65;;;14.60;99.90;;;;;;5082559;28;20044;-67
2022/05/27 02:04:44;;;;;;;2.80;1.48;;;14.60;99.90;;;;;;5077276;28;20044;-67
2022/05/27 02:07:23;;;;;;;3.72;1.70;;;14.60;99.90;;;;;;5077918;28;20440;-67
2022/05/27 02:09:58;;;;;;;3.25;1.67;;;14.60;99.90;;;;;;5078666;28;20044;-67
2022/05/27 02:12:44;;;;;;;2.95;1.88;;;14.60;99.90;;;;;;5061611;28;20383;-67
2022/05/27 02:15:15;;;;;;;2.60;1.60;;;14.60;99.90;;;;;;5077296;28;20055;-67
2022/05/27 02:17:50;;;;;;;2.63;1.80;;;14.50;99.90;;;;;;5078160;28;20044;-67
2022/05/27 02:20:22;;;;;;;3.33;1.80;;;14.50;99.90;;;;;;5078397;28;20044;-67
2022/05/27 02:22:58;;;;;;;3.13;1.77;;;14.50;99.90;;;;;;5093251;28;20036;-67
2022/05/27 02:25:28;;;;;;;5.07;1.80;;;14.40;99.90;;;;;;5094436;28;20040;-62
2022/05/27 02:27:57;;;;;;;4.03;2.22;;;14.50;99.90;;;;;;5093079;28;20489;-67
2022/05/27 02:30:29;;;;;;;4.55;1.70;;;14.50;99.90;;;;;;5093479;28;20044;-67
2022/05/27 02:35:49;;;;;;;3.13;1.67;;;14.60;99.90;;;;;;5080174;28;20040;-67
2022/05/27 02:38:16;;;;;;;2.90;1.40;;;14.60;99.90;;;;;;5094376;28;20044;-67
2022/05/27 02:41:04;;;;;;;5.18;1.77;;;14.60;99.90;;;;;;5077321;28;20036;-67
2022/05/27 02:43:57;;;;;;;4.05;1.70;;;14.50;99.90;;;;;;5053201;28;1165688;-67
2022/05/27 02:46:29;;;;;;;2.20;1.63;;;14.40;99.90;;;;;;5086422;28;20494;-67
2022/05/27 02:49:34;;;;;;;3.42;1.70;;;14.40;99.90;;;;;;5077313;28;20048;-67
2022/05/27 02:52:29;;;;;;;2.83;1.88;;;14.30;99.90;;;;;;5093876;28;20509;-67
2022/05/27 02:54:59;;;;;;;3.55;2.08;;;14.30;99.90;;;;;;5079425;28;20052;-67
2022/05/27 02:57:45;;;;;;;3.60;1.85;;;14.20;99.90;;;;;;5093587;28;20043;-67
2022/05/27 03:00:18;;;;;;;3.65;2.30;;;14.10;99.90;;;;;;5095000;28;20040;-67
2022/05/27 03:02:45;;;;;;;2.83;1.92;;;14.10;99.90;;;;;;5060763;28;20050;-67
2022/05/27 03:05:13;;;;;;;3.58;1.85;;;14.10;99.90;;;;;;5093561;28;20071;-67
2022/05/27 03:07:49;;;;;;;4.00;2.15;;;14.10;99.90;;;;;;5077547;28;20040;-67
2022/05/27 03:10:22;;;;;;;4.20;1.80;;;14.00;99.90;;;;;;5094824;28;20051;-66
2022/05/27 03:12:58;;;;;;;4.10;1.70;;;14.00;99.90;;;;;;5094030;28;20463;-67
2022/05/27 03:15:31;;;;;;;2.92;1.75;;;14.00;99.90;;;;;;5094664;28;20455;-67
2022/05/27 03:18:11;;;;;;;3.42;1.83;;;14.00;99.90;;;;;;5077811;28;20044;-67
2022/05/27 03:20:44;;;;;;;3.33;2.00;;;14.00;99.90;;;;;;5078449;28;20055;-67
2022/05/27 03:23:32;;;;;;;3.88;1.80;;;13.90;99.90;;;;;;5093788;28;20070;-67
2022/05/27 03:26:05;;;;;;;5.85;2.22;;;14.00;99.90;;;;;;5095286;28;20044;-67
2022/05/27 03:29:10;;;;;;;3.90;2.05;;;13.90;99.90;;;;;;5094121;28;20055;-67
2022/05/27 03:31:40;;;;;;;2.83;1.92;;;13.90;99.90;;;;;;5072216;28;20131;-67
2022/05/27 03:34:25;;;;;;;3.10;2.05;;;13.90;99.90;;;;;;5055617;28;20071;-67
2022/05/27 03:36:53;;;;;;;5.65;2.60;;;13.90;99.90;;;;;;5070031;28;20383;-67
2022/05/27 03:39:33;;;;;;;4.43;2.22;;;13.90;99.90;;;;;;5092723;28;20039;-67
2022/05/27 03:42:04;;;;;;;3.42;2.25;;;13.90;99.90;;;;;;5077525;28;20382;-67
2022/05/27 03:44:31;;;;;;;4.55;2.50;;;13.80;99.90;;;;;;5093943;28;20047;-67
2022/05/27 03:46:59;;;;;;;2.95;1.75;;;13.80;99.90;;;;;;5076636;28;20048;-67
2022/05/27 03:49:26;;;;;;;4.38;2.28;;;13.80;99.90;;;;;;5076018;28;20044;-67
2022/05/27 03:52:03;;;;;;;4.95;2.50;;;13.80;99.90;;;;;;5076284;28;20040;-67
2022/05/27 03:54:30;;;;;;;3.95;2.15;;;13.70;99.90;;;;;;5093901;28;20040;-67
2022/05/27 03:56:57;;;;;;;3.85;1.98;;;13.70;99.90;;;;;;5092411;28;20046;-67
2022/05/27 03:59:24;;;;;;;5.40;2.30;;;13.70;99.90;;;;;;5094762;28;20036;-67
2022/05/27 04:01:53;;;;;;;4.15;2.40;;;13.70;99.90;;;;;;5075887;28;20043;-67
2022/05/27 04:04:22;;;;;;;4.13;2.10;;;13.70;99.90;;;;;;5076158;28;20040;-67
2022/05/27 04:06:49;;;;;;;4.07;2.15;;;13.60;99.90;;;;;;5076099;28;20432;-67
2022/05/27 04:09:17;;;;;;;5.38;2.70;;;13.60;99.90;;;;;;5076327;28;20486;-67
2022/05/27 04:11:44;;;;;;;3.17;2.00;;;13.60;99.90;;;;;;5075780;28;20048;-67
2022/05/27 04:14:11;;;;;;;5.63;2.33;;;13.60;99.90;;;;;;5092233;28;20036;-67
2022/05/27 04:16:38;;;;;;;4.93;2.00;;;13.70;99.90;;;;;;5075614;28;20066;-67
2022/05/27 04:19:05;;;;;;;3.97;2.60;;;13.70;99.90;;;;;;5092197;28;20044;-67
2022/05/27 04:21:33;;;;;;;4.13;2.55;;;13.70;99.90;;;;;;5075798;28;20048;-67
2022/05/27 04:24:00;;;;;;;3.42;2.10;;;13.70;99.90;;;;;;5059039;28;20047;-67
2022/05/27 04:26:27;;;;;;;5.32;2.53;;;13.80;99.90;;;;;;5075940;28;20051;-67
2022/05/27 04:28:54;;;;;;;4.63;2.45;;;13.80;99.90;;;;;;5093317;28;20051;-67
2022/05/27 04:31:21;;;;;;;3.67;2.33;;;13.80;99.90;;;;;;5093189;28;20043;-67
2022/05/27 04:33:48;;;;;;;3.30;1.90;;;13.80;99.90;;;;;;5092099;28;20056;-67
2022/05/27 04:36:15;;;;;;;3.75;2.10;;;13.90;99.90;;;;;;5093289;28;20040;-67
2022/05/27 04:38:42;;;;;;;3.75;1.80;;;13.90;99.90;;;;;;5076142;28;20056;-67
2022/05/27 04:41:09;;;;;;;5.07;2.78;;;14.10;99.90;;;;;;5092243;28;20071;-67
2022/05/27 04:43:36;;;;;;;3.53;2.20;;;14.20;99.90;;;;;;5092453;28;20067;-67
2022/05/27 04:46:03;;;;;;;4.28;2.15;;;14.30;99.90;;;;;;5091990;28;20040;-67
2022/05/27 04:48:30;;;;;;;2.33;1.75;;;14.60;99.90;;;;;;5075481;28;20429;-67
2022/05/27 04:50:58;;;;;;;4.70;2.63;;;14.90;99.90;;;;;;5094233;28;20067;-67
2022/05/27 04:53:26;;;;;;;3.17;1.95;;;15.20;99.90;;;;;;5092045;28;20394;-67
2022/05/27 04:55:53;;;;;;;2.40;1.70;;;15.40;99.90;;;;;;5092610;28;20040;-67
2022/05/27 04:58:19;;;;;;;2.97;1.83;;;15.60;99.90;;;;;;5093229;28;20471;-67
2022/05/27 05:00:47;;;;;;;4.80;1.90;;;15.70;99.90;;;;;;5075460;28;20050;-67
2022/05/27 05:03:14;;;;;;;3.90;1.83;;;15.90;99.90;;;;;;5092003;28;20093;-67
2022/05/27 05:05:41;;;;;;;3.90;2.10;;;16.00;99.90;;;;;;5093201;28;20046;-67
2022/05/27 05:08:12;;;;;;;3.47;1.80;;;16.20;99.90;;;;;;5093388;28;20036;-67
2022/05/27 05:10:39;;;;;;;2.75;1.70;;;16.30;99.90;;;;;;5092066;28;20379;-67
2022/05/27 05:13:07;;;;;;;3.20;1.92;;;16.30;99.90;;;;;;5091693;28;20127;-67
2022/05/27 05:15:33;;;;;;;3.67;2.33;;;16.10;99.90;;;;;;5091861;28;20071;-66
2022/05/27 05:18:00;;;;;;;4.07;2.35;;;16.10;99.90;;;;;;5093129;28;20036;-67
2022/05/27 05:20:29;;;;;;;2.70;1.92;;;16.00;99.90;;;;;;5094946;28;20051;-67
2022/05/27 05:22:56;;;;;;;3.97;2.17;;;16.00;99.90;;;;;;5095684;28;20048;-67
2022/05/27 05:25:23;;;;;;;5.18;1.90;;;16.10;99.90;;;;;;5096882;28;20052;-67
2022/05/27 05:27:50;;;;;;;3.90;2.30;;;16.40;99.90;;;;;;5096571;28;20039;-67
2022/05/27 05:30:19;;;;;;;3.35;1.88;;;16.30;99.90;;;;;;5096081;28;20371;-66
2022/05/27 05:32:46;;;;;;;4.10;2.13;;;16.30;99.90;;;;;;5078945;28;20055;-67
2022/05/27 05:35:13;;;;;;;3.25;2.13;;;16.20;99.90;;;;;;5096900;28;20043;-67
2022/05/27 05:37:40;;;;;;;4.50;2.30;;;16.40;99.90;;;;;;5095013;28;20036;-67
2022/05/27 05:40:09;;;;;;;2.72;1.98;;;16.60;99.90;;;;;;5096237;28;20048;-67
2022/05/27 05:42:36;;;;;;;3.58;2.10;;;16.70;99.90;;;;;;5095976;28;20047;-67
2022/05/27 05:45:03;;;;;;;5.55;2.83;;;16.80;99.90;;;;;;5078142;28;20488;-67
2022/05/27 05:47:30;;;;;;;4.13;2.33;;;16.90;99.90;;;;;;5096715;28;20459;-67
2022/05/27 05:49:57;;;;;;;5.00;2.97;;;16.90;99.90;;;;;;5095038;28;20044;-67
2022/05/27 05:52:24;;;;;;;3.72;2.30;;;17.00;99.90;;;;;;5094811;28;20043;-67
2022/05/27 05:54:51;;;;;;;4.75;2.15;;;17.10;99.90;;;;;;5094490;28;20044;-67
2022/05/27 05:57:18;;;;;;;5.93;2.55;;;17.30;99.90;;;;;;5094883;28;20123;-67
2022/05/27 05:59:45;;;;;;;6.07;2.75;;;17.30;99.90;;;;;;5094935;28;20402;-67
2022/05/27 06:02:12;;;;;;;8.98;3.28;;;17.30;99.90;;;;;;5095316;28;20357;-68
2022/05/27 06:04:39;;;;;;;7.18;2.10;;;17.20;99.90;;;;;;5094816;28;20055;-67
2022/05/27 06:07:11;;;;;;;7.70;2.70;;;17.00;99.90;;;;;;5095347;28;20068;-67
2022/05/27 06:09:40;;;;;;;6.88;2.95;;;16.90;99.90;;;;;;5096413;28;20048;-67
2022/05/27 06:12:08;;;;;;;5.82;2.67;;;16.80;99.90;;;;;;5095593;28;20048;-69
2022/05/27 06:14:36;;;;;;;82.75;63.85;;;16.70;99.90;;;;;;5079085;28;20062;-67
2022/05/27 06:17:03;;;;;;;12.95;10.20;;;16.70;99.90;;;;;;5095793;28;20122;-67
2022/05/27 06:19:30;;;;;;;9.73;4.82;;;16.80;99.90;;;;;;5078665;28;20056;-70
2022/05/27 06:21:57;;;;;;;5.97;2.88;;;16.80;99.90;;;;;;5077754;28;20055;-74
2022/05/27 06:24:24;;;;;;;7.18;2.95;;;16.70;99.90;;;;;;5077564;28;20044;-71
2022/05/27 06:26:50;;;;;;;7.93;3.30;;;16.70;99.90;;;;;;5095273;28;20458;-71
2022/05/27 06:34:48;;;;;;;51.10;38.95;;;16.60;99.90;;;;;;5095991;28;20382;-70
2022/05/27 06:37:18;;;;;;;13.60;8.80;;;16.70;99.90;;;;;;5095846;28;20046;-71
2022/05/27 06:39:45;;;;;;;6.63;4.28;;;16.80;99.90;;;;;;5077364;28;20044;-71
2022/05/27 06:42:14;;;;;;;6.07;3.17;;;16.80;99.90;;;;;;5077032;28;20048;-71
2022/05/27 06:45:01;;;;;;;5.88;2.55;;;17.00;99.90;;;;;;5094120;28;20048;-71
2022/05/27 06:47:28;;;;;;;8.20;2.97;;;16.90;99.90;;;;;;5077265;28;20123;-71
2022/05/27 06:49:55;;;;;;;5.88;2.90;;;17.10;99.90;;;;;;5094922;28;20044;-71
2022/05/27 06:52:24;;;;;;;6.20;3.17;;;17.00;99.90;;;;;;5093542;28;20040;-71
2022/05/27 06:54:52;;;;;;;5.47;2.28;;;16.90;99.90;;;;;;5095029;28;20101;-71
2022/05/27 06:57:19;;;;;;;7.35;3.08;;;16.80;99.90;;;;;;5094964;28;20439;-70
2022/05/27 06:59:46;;;;;;;8.30;2.88;;;16.80;99.90;;;;;;5076690;28;20040;-71
2022/05/27 07:02:13;;;;;;;7.63;2.47;;;17.00;99.90;;;;;;5077188;28;20040;-70
2022/05/27 07:04:41;;;;;;;7.32;2.60;;;16.90;99.90;;;;;;5093728;28;20133;-70
2022/05/27 07:07:08;;;;;;;10.40;3.22;;;16.80;99.90;;;;;;5094767;28;20044;-69
2022/05/27 07:09:38;;;;;;;7.63;3.22;;;16.80;99.90;;;;;;5093324;28;20040;-69
2022/05/27 07:12:07;;;;;;;9.00;3.65;;;16.90;99.90;;;;;;5077614;28;20071;-69
2022/05/27 07:14:34;;;;;;;12.63;4.05;;;17.00;99.90;;;;;;5077339;28;20494;-69
2022/05/27 07:17:01;;;;;;;10.82;2.78;;;16.90;99.90;;;;;;5094294;28;20051;-69
2022/05/27 07:19:37;;;;;;;8.05;3.20;;;16.80;99.90;;;;;;5094313;28;20048;-70
2022/05/27 07:22:08;;;;;;;8.50;3.08;;;16.70;99.90;;;;;;5093302;28;20123;-70
2022/05/27 07:24:36;;;;;;;5.57;2.85;;;16.70;99.90;;;;;;5060155;28;20036;-70
2022/05/27 07:27:03;;;;;;;8.02;3.13;;;16.80;99.90;;;;;;5094476;28;20044;-69
2022/05/27 07:29:30;;;;;;;8.32;2.88;;;16.80;99.90;;;;;;5092939;28;20169;-69
2022/05/27 07:31:57;;;;;;;9.27;3.55;;;16.80;99.90;;;;;;5093118;28;20047;-70
2022/05/27 07:34:24;;;;;;;8.70;4.25;;;16.90;99.90;;;;;;5092714;28;20048;-69
2022/05/27 07:36:51;;;;;;;9.75;2.92;;;17.00;99.90;;;;;;5077063;28;20046;-74
2022/05/27 07:39:20;;;;;;;10.15;4.47;;;17.10;99.90;;;;;;5094214;28;20044;-72
2022/05/27 07:41:47;;;;;;;8.80;2.97;;;17.20;99.90;;;;;;5093901;28;20468;-74
2022/05/27 07:44:14;;;;;;;8.30;2.80;;;17.40;99.90;;;;;;5094323;28;20040;-72
2022/05/27 07:46:41;;;;;;;6.45;2.75;;;17.50;99.90;;;;;;5093750;28;20383;-72
2022/05/27 07:49:08;;;;;;;8.18;3.47;;;17.40;99.90;;;;;;5093698;28;20135;-73
2022/05/27 07:51:55;;;;;;;10.32;3.45;;;17.30;99.90;;;;;;5094829;28;20043;-73
2022/05/27 07:54:21;;;;;;;6.85;3.00;;;17.20;99.90;;;;;;5093274;28;20127;-74
2022/05/27 07:56:49;;;;;;;8.02;3.00;;;17.20;99.90;;;;;;5093705;28;20047;-73
2022/05/27 07:59:16;;;;;;;7.78;3.00;;;17.00;99.90;;;;;;5092433;28;20040;-73
2022/05/27 08:01:42;;;;;;;12.15;8.60;;;17.20;99.90;;;;;;5093563;28;20533;-72
2022/05/27 08:04:09;;;;;;;21.42;16.95;;;17.20;99.90;;;;;;5093891;28;20040;-75
2022/05/27 08:06:37;;;;;;;11.20;5.22;;;17.30;99.90;;;;;;5093458;28;20113;-65
2022/05/27 08:09:11;;;;;;;7.00;3.53;;;17.30;99.90;;;;;;5093372;28;20040;-69
2022/05/27 08:11:38;;;;;;;7.45;3.08;;;17.40;99.90;;;;;;5076682;28;20040;-77
2022/05/27 08:14:05;;;;;;;7.20;3.40;;;17.50;99.90;;;;;;5092054;28;20143;-71
2022/05/27 08:16:33;;;;;;;8.68;4.68;;;17.70;99.90;;;;;;5093291;28;20494;-68
2022/05/27 08:19:01;;;;;;;6.03;3.10;;;17.90;99.90;;;;;;5092518;28;20512;-67
2022/05/27 08:21:28;;;;;;;11.32;3.72;;;18.00;99.90;;;;;;5094759;28;20085;-66
2022/05/27 08:23:55;;;;;;;7.85;3.22;;;18.10;99.90;;;;;;5093885;28;20048;-65
2022/05/27 08:26:21;;;;;;;8.20;4.15;;;17.90;98.70;;;;;;5092331;28;20080;-66
2022/05/27 08:28:48;;;;;;;10.70;4.18;;;18.00;99.90;;;;;;5094082;28;20051;-66
2022/05/27 08:31:16;;;;;;;9.75;4.32;;;18.20;99.10;;;;;;5093054;28;20472;-63
2022/05/27 08:39:15;;;;;;;11.98;3.22;;;18.50;96.20;;;;;;5092945;28;20482;-66
2022/05/27 08:41:57;;;;;;;8.23;2.95;;;18.50;96.00;;;;;;5093818;28;20051;-68
2022/05/27 08:44:36;;;;;;;7.55;3.47;;;18.60;94.00;;;;;;5092136;28;20059;-70
2022/05/27 08:47:22;;;;;;;10.75;3.40;;;18.50;93.90;;;;;;5092099;28;20044;-69
2022/05/27 08:50:05;;;;;;;9.73;3.70;;;18.50;92.80;;;;;;5091744;28;20073;-65
2022/05/27 08:52:36;;;;;;;10.20;3.42;;;18.20;92.30;;;;;;5092124;28;20051;-67
2022/05/27 08:59:26;;;;;;;9.00;3.28;;;17.90;93.60;;;;;;5075912;28;20463;-65
2022/05/27 09:00:42;;;;;;;11.98;3.58;;;18.00;92.90;;;;;;5095715;28;20040;-66
2022/05/27 09:03:09;;;;;;;7.22;3.35;;;18.00;92.80;;;;;;5096414;28;20089;-65
2022/05/27 09:05:53;;;;;;;9.48;3.35;;;18.10;93.50;;;;;;5095167;28;20051;-65
2022/05/27 09:08:22;;;;;;;10.30;3.90;;;18.40;94.00;;;;;;5080334;28;20134;-64
2022/05/27 09:10:58;;;;;;;10.65;4.82;;;18.30;92.70;;;;;;5097202;28;20059;-64
2022/05/27 09:13:36;;;;;;;13.15;4.22;;;18.30;92.30;;;;;;5097054;28;20075;-63
2022/05/27 09:16:21;;;;;;;13.57;3.78;;;18.30;90.20;;;;;;5063537;28;20047;-67
2022/05/27 09:18:53;;;;;;;12.07;4.50;;;18.20;90.30;;;;;;5097331;28;20051;-68
2022/05/27 09:21:38;;;;;;;19.30;8.07;;;18.20;93.00;;;;;;5095203;28;20047;-65
2022/05/27 09:24:11;;;;;;;13.52;4.80;;;18.50;93.50;;;;;;5096626;28;20432;-67
2022/05/27 09:27:01;;;;;;;13.35;4.25;;;18.50;91.70;;;;;;5095934;28;20044;-67
2022/05/27 09:29:48;;;;;;;10.75;5.32;;;18.20;90.30;;;;;;5097603;28;20086;-65
2022/05/27 09:32:27;;;;;;;10.02;3.40;;;18.00;88.00;;;;;;5063012;28;20050;-64
2022/05/27 09:34:55;;;;;;;12.23;4.07;;;17.90;88.80;;;;;;5095803;28;20067;-62
2022/05/27 09:37:34;;;;;;;11.93;4.28;;;17.80;88.10;;;;;;5094729;28;20055;-66
2022/05/27 09:40:06;;;;;;;8.88;3.40;;;17.70;83.60;;;;;;5079452;28;20448;-66
2022/05/27 09:42:38;;;;;;;8.00;3.10;;;17.80;88.20;;;;;;5078226;28;20058;-64
2022/05/27 09:45:06;;;;;;;7.55;3.42;;;18.10;89.30;;;;;;5078751;28;20459;-64
2022/05/27 09:47:33;;;;;;;13.05;4.13;;;18.10;85.20;;;;;;5096406;28;20044;-63
2022/05/27 09:50:27;;;;;;;9.98;4.20;;;18.00;86.50;;;;;;5078933;28;20052;-67
2022/05/27 09:52:56;;;;;;;13.80;3.60;;;18.10;85.80;;;;;;5091769;28;20044;-64
2022/05/27 09:55:57;;;;;;;11.50;4.40;;;18.00;82.70;;;;;;5061164;28;20454;-66
2022/05/27 09:58:29;;;;;;;10.70;3.83;;;18.00;79.70;;;;;;5095574;28;20478;-66
2022/05/27 10:00:56;;;;;;;10.05;4.10;;;17.80;81.30;;;;;;5095263;28;20058;-68
2022/05/27 10:03:34;;;;;;;10.88;4.45;;;17.80;84.70;;;;;;5096277;28;20046;-69
2022/05/27 10:06:06;;;;;;;11.60;4.47;;;17.80;82.70;;;;;;5094793;28;20051;-66
2022/05/27 10:08:36;;;;;;;13.55;4.10;;;17.90;82.70;;;;;;5095584;28;20044;-66
2022/05/27 10:11:12;;;;;;;6.90;4.00;;;17.70;81.90;;;;;;5095526;28;20036;-67
2022/05/27 10:13:41;;;;;;;13.75;4.32;;;17.60;80.00;;;;;;5094831;28;20048;-65
2022/05/27 10:16:22;;;;;;;15.95;5.05;;;17.50;81.40;;;;;;5095318;28;20044;-69
2022/05/27 10:19:10;;;;;;;16.10;7.30;;;17.50;83.40;;;;;;5079183;28;20211;-65
2022/05/27 10:21:52;;;;;;;12.18;4.95;;;17.70;83.70;;;;;;5078571;28;20137;-66
2022/05/27 10:24:27;;;;;;;11.52;4.07;;;17.90;80.70;;;;;;5095094;28;20040;-67
2022/05/27 10:27:10;;;;;;;10.35;3.95;;;18.10;83.40;;;;;;5095560;28;20040;-66
2022/05/27 10:29:54;;;;;;;12.02;4.00;;;18.20;82.70;;;;;;5094948;28;20050;-66
2022/05/27 10:32:31;;;;;;;12.90;4.00;;;18.30;80.40;;;;;;5077508;28;20036;-65
2022/05/27 10:35:26;;;;;;;9.65;4.00;;;18.20;82.00;;;;;;5095236;28;20123;-67
2022/05/27 10:38:10;;;;;;;10.52;3.97;;;18.40;79.60;;;;;;5090011;28;20368;-66
2022/05/27 10:40:38;;;;;;;8.82;3.28;;;18.50;80.20;;;;;;5094556;28;20050;-69
2022/05/27 10:43:30;;;;;;;12.88;3.33;;;18.40;77.60;;;;;;5093402;28;20044;-73
2022/05/27 10:45:57;;;;;;;16.52;6.03;;;18.40;75.50;;;;;;5094333;28;20063;-67
2022/05/27 10:48:56;;;;;;;11.73;3.63;;;18.20;76.40;;;;;;5093854;28;20085;-66
2022/05/27 10:51:41;;;;;;;15.52;9.00;;;18.20;76.20;;;;;;5093655;28;20044;-52
2022/05/27 10:54:36;;;;;;;9.13;4.10;;;18.20;75.60;;;;;;5095325;28;20447;-67
2022/05/27 11:03:23;;;;;;;12.65;4.22;;;18.40;74.90;;;;;;5079740;28;20036;-65
2022/05/27 11:06:14;;;;;;;14.63;3.97;;;18.40;70.10;;;;;;5095458;28;20498;-62
2022/05/27 11:09:20;;;;;;;9.82;4.20;;;18.50;72.60;;;;;;5094565;28;20451;-68
2022/05/27 11:11:55;;;;;;;12.15;4.07;;;18.50;71.20;;;;;;5086305;28;20040;-66
2022/05/27 11:17:46;;;;;;;12.68;3.60;;;18.30;70.20;;;;;;5080236;28;20040;-63
2022/05/27 11:20:32;;;;;;;9.27;3.58;;;18.40;72.70;;;;;;5094553;28;20051;-63
2022/05/27 11:23:09;;;;;;;11.75;3.50;;;18.50;71.70;;;;;;5094988;28;20062;-64
2022/05/27 11:25:45;;;;;;;8.88;3.72;;;18.50;73.10;;;;;;5092866;28;20066;-64
2022/05/27 11:28:35;;;;;;;9.23;3.65;;;18.50;70.60;;;;;;5092813;28;20050;-64
2022/05/27 11:31:09;;;;;;;14.75;4.18;;;18.60;71.30;;;;;;5078226;28;20044;-64
2022/05/27 11:33:49;;;;;;;11.70;4.97;;;18.70;71.50;;;;;;5077414;28;20044;-64
2022/05/27 11:36:41;;;;;;;8.20;3.90;;;18.80;70.10;;;;;;5093444;28;20044;-64
2022/05/27 11:39:17;;;;;;;11.02;4.07;;;19.00;69.50;;;;;;5092605;28;20046;-64
2022/05/27 11:42:04;;;;;;;11.98;3.80;;;19.10;71.90;;;;;;5093610;28;20054;-64
2022/05/27 11:45:13;;;;;;;10.35;3.95;;;19.20;73.20;;;;;;5092632;28;20043;-64
2022/05/27 11:47:59;;;;;;;10.38;3.47;;;19.30;68.80;;;;;;5089395;28;20040;-64
2022/05/27 11:50:47;;;;;;;15.40;4.55;;;19.40;66.70;;;;;;5076963;28;20070;-64
2022/05/27 11:53:26;;;;;;;9.40;3.63;;;19.40;68.60;;;;;;5093935;28;20046;-64
2022/05/27 11:56:12;;;;;;;13.02;3.40;;;19.20;67.80;;;;;;5092220;28;20498;-64
2022/05/27 11:59:14;;;;;;;10.90;4.30;;;19.30;69.60;;;;;;5094056;28;20043;-64
2022/05/27 12:01:44;;;;;;;11.70;4.10;;;19.20;67.60;;;;;;5082040;28;20075;-63
2022/05/27 12:04:16;;;;;;;25.90;14.27;;;19.20;69.70;;;;;;5076984;28;20444;-64
2022/05/27 12:06:52;;;;;;;11.00;6.50;;;19.30;69.90;;;;;;5093727;28;20043;-64
2022/05/27 12:09:35;;;;;;;11.40;5.20;;;19.40;69.70;;;;;;5076275;28;20048;-64
2022/05/27 12:12:08;;;;;;;12.00;3.88;;;19.30;65.60;;;;;;5092363;28;20040;-64
2022/05/27 12:14:47;;;;;;;9.10;3.78;;;19.40;69.10;;;;;;5092901;28;20047;-64
2022/05/27 12:17:18;;;;;;;10.38;3.85;;;19.40;67.60;;;;;;5092050;28;20040;-66
2022/05/27 12:19:55;;;;;;;7.13;3.42;;;19.50;70.40;;;;;;5092098;28;20040;-66
2022/05/27 12:22:25;;;;;;;14.90;6.75;;;19.60;67.40;;;;;;5077580;28;20096;-74
2022/05/27 12:24:57;;;;;;;13.77;8.90;;;19.60;71.50;;;;;;5076209;28;20055;-75
2022/05/27 12:27:24;;;;;;;8.77;3.83;;;19.60;68.10;;;;;;5092241;28;20426;-65
2022/05/27 12:29:51;;;;;;;8.13;4.15;;;19.60;68.50;;;;;;5094368;28;20036;-64
2022/05/27 12:32:20;;;;;;;8.75;3.78;;;19.60;66.90;;;;;;5079717;28;20055;-66
2022/05/27 12:34:50;;;;;;;6.90;3.45;;;19.70;68.00;;;;;;5063085;28;20047;-66
2022/05/27 12:37:24;;;;;;;7.68;3.42;;;19.70;67.70;;;;;;5096084;28;20036;-66
2022/05/27 12:40:23;;;;;;;9.65;3.63;;;19.70;67.70;;;;;;5098155;28;20074;-66
2022/05/27 12:42:55;;;;;;;10.90;3.42;;;19.80;67.60;;;;;;5096110;28;20044;-66
2022/05/27 12:45:34;;;;;;;9.55;4.10;;;19.90;67.00;;;;;;5096525;28;20097;-66
2022/05/27 12:48:01;;;;;;;9.60;3.47;;;19.90;64.10;;;;;;5080972;28;20101;-65
2022/05/27 12:50:32;;;;;;;14.27;3.53;;;19.90;65.20;;;;;;5080180;28;20051;-64
2022/05/27 12:53:21;;;;;;;36.28;28.85;;;19.80;64.30;;;;;;5095832;28;20136;-72
2022/05/27 13:02:14;;;;;;;10.23;3.45;;;19.60;63.30;;;;;;5096830;28;20040;-71
2022/05/27 13:04:52;;;;;;;19.45;5.20;;;19.70;66.00;;;;;;5096764;28;20048;-70
2022/05/27 13:07:37;;;;;;;13.52;3.97;;;19.70;64.90;;;;;;5080722;28;20066;-69
2022/05/27 13:10:16;;;;;;;9.65;3.63;;;19.70;64.00;;;;;;5097122;28;20044;-69
2022/05/27 13:12:50;;;;;;;10.13;3.65;;;19.60;63.30;;;;;;5095742;28;20040;-69
2022/05/27 13:15:53;;;;;;;10.02;3.50;;;19.70;64.50;;;;;;5097618;28;20048;-69
2022/05/27 13:18:30;;;;;;;8.52;5.03;;;20.00;66.80;;;;;;5096639;28;20126;-69
2022/05/27 13:21:42;;;;;;;7.65;3.53;;;20.00;63.10;;;;;;5096490;28;20044;-70
2022/05/27 13:24:12;;;;;;;9.93;4.18;;;20.10;63.50;;;;;;5091132;28;20094;-70
2022/05/27 13:26:45;;;;;;;10.82;3.97;;;20.20;61.50;;;;;;5096345;28;20043;-69
2022/05/27 13:29:23;;;;;;;8.18;3.15;;;20.10;61.80;;;;;;5078740;28;20491;-67
2022/05/27 13:32:01;;;;;;;11.77;3.65;;;20.10;62.20;;;;;;5096012;28;20044;-68
2022/05/27 13:34:53;;;;;;;10.80;2.97;;;20.10;61.40;;;;;;5096292;28;20047;-69
2022/05/27 13:37:38;;;;;;;11.15;3.40;;;20.00;61.20;;;;;;5096790;28;20452;-67
2022/05/27 13:40:29;;;;;;;7.35;3.47;;;20.00;59.70;;;;;;5097245;28;20390;-68
2022/05/27 13:43:04;;;;;;;13.77;3.83;;;20.00;59.70;;;;;;5097245;28;20054;-68
2022/05/27 13:45:50;;;;;;;10.40;3.10;;;20.00;62.00;;;;;;5095313;28;20044;-68
2022/05/27 13:48:28;;;;;;;14.07;4.32;;;20.00;60.60;;;;;;5096246;28;20043;-69
2022/05/27 13:51:11;;;;;;;9.63;3.92;;;20.10;61.90;;;;;;5095171;28;20047;-68